Tuesday, January 17, 2017, 3:55 AM EST

KJYO, Leesburg / Godfrey

Location: Leesburg, VA, United States Lat: 39.083
Local Time: 3:55 AM EST ( 8:55 GMT) Lon: -77.567
Time Zone: US/Eastern Elev: 390 ft

Show me the last for .
Show Decoded

2017-01-17 03:34 METAR KJYO 170834Z AUTO 7SM OVC005 06/06 A3023 RMK AO2 =
2017-01-17 03:14 METAR KJYO 170814Z AUTO 7SM OVC005 06/06 A3023 RMK AO2 =
2017-01-17 02:54 METAR KJYO 170754Z AUTO 7SM OVC005 06/06 A3024 RMK AO2 =
2017-01-17 02:34 METAR KJYO 170734Z AUTO 7SM OVC005 06/06 A3025 RMK AO2 =
2017-01-17 02:14 METAR KJYO 170714Z AUTO 10SM OVC005 06/06 A3024 RMK AO2 =
2017-01-17 01:54 METAR KJYO 170654Z AUTO 10SM OVC007 06/05 A3025 RMK AO2 =
2017-01-17 01:34 METAR KJYO 170634Z AUTO 10SM OVC007 06/05 A3025 RMK AO2 =
2017-01-17 01:14 METAR KJYO 170614Z AUTO 10SM OVC007 06/05 A3026 RMK AO2 =
2017-01-17 00:54 METAR KJYO 170554Z AUTO 10SM OVC009 06/05 A3027 RMK AO2 =
2017-01-17 00:34 METAR KJYO 170534Z AUTO 10SM OVC009 06/05 A3027 RMK AO2 =
2017-01-17 00:14 METAR KJYO 170514Z AUTO 10SM OVC009 06/05 A3027 RMK AO2 =
2017-01-16 23:54 METAR KJYO 170454Z AUTO 10SM -RA OVC009 06/04 A3028 RMK AO2 =
2017-01-16 23:34 METAR KJYO 170434Z AUTO 10SM -RA OVC009 06/04 A3029 RMK AO2 =
2017-01-16 23:14 METAR KJYO 170414Z AUTO 10SM -RA OVC011 06/04 A3030 RMK AO2 =
2017-01-16 22:54 METAR KJYO 170354Z AUTO 10SM OVC011 07/03 A3031 RMK AO2 =
2017-01-16 22:34 METAR KJYO 170334Z AUTO 10SM OVC011 07/03 A3032 RMK AO2 =
2017-01-16 22:14 METAR KJYO 170314Z AUTO 10SM OVC011 07/03 A3032 RMK AO2 =
2017-01-16 21:54 METAR KJYO 170254Z AUTO 10SM OVC013 07/03 A3033 RMK AO2 =
2017-01-16 21:34 METAR KJYO 170234Z AUTO 10SM OVC013 07/03 A3033 RMK AO2 =
2017-01-16 21:14 METAR KJYO 170214Z AUTO 10SM OVC013 07/03 A3033 RMK AO2 =
2017-01-16 20:54 METAR KJYO 170154Z AUTO 10SM OVC013 07/04 A3033 RMK AO2 =
2017-01-16 20:34 METAR KJYO 170134Z AUTO 10SM OVC013 07/05 A3034 RMK AO2 =
2017-01-16 20:14 METAR KJYO 170114Z AUTO 10SM OVC013 07/06 A3033 RMK AO2 =
2017-01-16 19:54 METAR KJYO 170054Z AUTO 10SM OVC013 07/06 A3034 RMK AO2 =
2017-01-16 19:34 METAR KJYO 170034Z AUTO 10SM OVC015 07/06 A3034 RMK AO2 =
2017-01-16 19:14 METAR KJYO 170014Z AUTO 00000KT 10SM OVC015 07/06 A3034 RMK AO2 =
2017-01-16 18:54 METAR KJYO 162354Z AUTO 10SM OVC015 07/06 A3034 RMK AO2 =
2017-01-16 18:34 METAR KJYO 162334Z AUTO 10SM OVC015 07/06 A3035 RMK AO2 =
2017-01-16 18:15 METAR KJYO 162315Z AUTO 10SM OVC013 07/06 A3035 RMK AO2 =
2017-01-16 17:55 METAR KJYO 162255Z AUTO 10SM OVC013 07/06 A3035 RMK AO2 =
2017-01-16 17:34 METAR KJYO 162234Z AUTO 10SM OVC013 07/05 A3036 RMK AO2 =
2017-01-16 17:14 METAR KJYO 162214Z AUTO 10SM OVC015 07/05 A3036 RMK AO2 =
2017-01-16 16:55 METAR KJYO 162155Z AUTO 10SM OVC013 07/05 A3036 RMK AO2 =
2017-01-16 16:34 METAR KJYO 162134Z AUTO 21006KT 10SM OVC013 07/05 A3036 RMK AO2 =
2017-01-16 16:14 METAR KJYO 162114Z AUTO 19007KT 10SM OVC015 07/05 A3036 RMK AO2 =
2017-01-16 15:54 METAR KJYO 162054Z AUTO 10SM OVC019 07/04 A3037 RMK AO2 =
2017-01-16 15:34 METAR KJYO 162034Z AUTO 10SM OVC019 08/04 A3036 RMK AO2 =
2017-01-16 15:14 METAR KJYO 162014Z AUTO 10SM OVC019 08/04 A3036 RMK AO2 =
2017-01-16 14:54 METAR KJYO 161954Z AUTO 17007KT 10SM OVC019 08/04 A3035 RMK AO2 =
2017-01-16 14:34 METAR KJYO 161934Z AUTO 10SM OVC019 07/03 A3036 RMK AO2 =
2017-01-16 14:14 METAR KJYO 161914Z AUTO 16007KT 10SM OVC019 07/03 A3036 RMK AO2 =
2017-01-16 13:54 METAR KJYO 161854Z AUTO 10SM OVC017 07/03 A3037 RMK AO2 =
2017-01-16 13:34 METAR KJYO 161834Z AUTO 10SM OVC017 07/03 A3038 RMK AO2 =
2017-01-16 13:14 METAR KJYO 161814Z AUTO 10SM OVC017 07/03 A3039 RMK AO2 =
2017-01-16 12:54 METAR KJYO 161754Z AUTO 10SM OVC019 07/02 A3039 RMK AO2 =
2017-01-16 12:34 METAR KJYO 161734Z AUTO 10SM OVC019 06/02 A3040 RMK AO2 =
2017-01-16 12:16 METAR KJYO 161716Z AUTO 10SM OVC019 06/01 A3041 RMK AO2 =
2017-01-16 11:55 METAR KJYO 161655Z AUTO 10SM OVC019 06/01 A3044 RMK AO2 =
2017-01-16 11:34 METAR KJYO 161634Z AUTO 10SM OVC019 06/01 A3044 RMK AO2 =
2017-01-16 11:15 METAR KJYO 161615Z AUTO 10SM OVC019 06/00 A3045 RMK AO2 =
2017-01-16 10:55 METAR KJYO 161555Z AUTO 10SM OVC019 06/00 A3047 RMK AO2 =
2017-01-16 10:34 METAR KJYO 161534Z AUTO 10SM OVC019 05/00 A3047 RMK AO2 =
2017-01-16 10:14 METAR KJYO 161514Z AUTO 10SM OVC021 04/M01 A3047 RMK AO2 =
2017-01-16 09:54 METAR KJYO 161454Z AUTO 10SM OVC021 04/M01 A3047 RMK AO2 =
2017-01-16 09:34 METAR KJYO 161434Z AUTO 10SM OVC021 04/M01 A3047 RMK AO2 =
2017-01-16 09:15 METAR KJYO 161415Z AUTO 10SM OVC021 03/M01 A3046 RMK AO2 =
2017-01-16 08:54 METAR KJYO 161354Z AUTO 10SM OVC021 03/M01 A3046 RMK AO2 =
2017-01-16 08:34 METAR KJYO 161334Z AUTO 10SM BKN021 OVC027 03/M01 A3046 RMK AO2 =
2017-01-16 08:14 METAR KJYO 161314Z AUTO 10SM OVC027 03/M01 A3046 RMK AO2 =
2017-01-16 07:54 METAR KJYO 161254Z AUTO 10SM OVC027 02/M01 A3046 RMK AO2 =
2017-01-16 07:34 METAR KJYO 161234Z AUTO 10SM OVC027 02/M01 A3045 RMK AO2 =
2017-01-16 07:14 METAR KJYO 161214Z AUTO 10SM OVC027 02/M01 A3046 RMK AO2 =
2017-01-16 06:54 METAR KJYO 161154Z AUTO 10SM OVC029 02/M01 A3045 RMK AO2 =
2017-01-16 06:34 METAR KJYO 161134Z AUTO 10SM OVC029 02/M01 A3045 RMK AO2 =
2017-01-16 06:14 METAR KJYO 161114Z AUTO 10SM OVC027 02/M02 A3045 RMK AO2 =
2017-01-16 05:54 METAR KJYO 161054Z AUTO 10SM OVC027 02/M02 A3044 RMK AO2 =
2017-01-16 05:34 METAR KJYO 161034Z AUTO 10SM OVC027 02/M02 A3044 RMK AO2 =
2017-01-16 05:15 METAR KJYO 161015Z AUTO 10SM OVC027 02/M02 A3043 RMK AO2 =
2017-01-16 04:54 METAR KJYO 160954Z AUTO 10SM OVC027 02/M02 A3044 RMK AO2 =
2017-01-16 04:35 METAR KJYO 160935Z AUTO 10SM OVC027 02/M02 A3043 RMK AO2 =
2017-01-16 04:14 METAR KJYO 160914Z AUTO 10SM OVC027 02/M02 A3043 RMK AO2 =

Support USWX by starting your Amazon purchase here.